sensor_id;sensor_type;location;lat;lon;timestamp;P1;durP1;ratioP1;P2;durP2;ratioP2
3121;SDS011;1571;52.524;14.104;2023-11-21T00:00:55;5.90;;;2.93;;
3121;SDS011;1571;52.524;14.104;2023-11-21T00:03:23;5.30;;;2.70;;
3121;SDS011;1571;52.524;14.104;2023-11-21T00:05:51;1.63;;;0.90;;
3121;SDS011;1571;52.524;14.104;2023-11-21T00:08:20;1.43;;;1.33;;
3121;SDS011;1571;52.524;14.104;2023-11-21T00:10:49;4.30;;;3.70;;
3121;SDS011;1571;52.524;14.104;2023-11-21T00:13:18;2.53;;;1.07;;
3121;SDS011;1571;52.524;14.104;2023-11-21T00:15:46;2.53;;;2.27;;
3121;SDS011;1571;52.524;14.104;2023-11-21T00:18:14;0.83;;;0.83;;
3121;SDS011;1571;52.524;14.104;2023-11-21T00:20:43;3.00;;;2.20;;
3121;SDS011;1571;52.524;14.104;2023-11-21T00:23:12;6.90;;;2.90;;
3121;SDS011;1571;52.524;14.104;2023-11-21T00:25:40;1.33;;;0.90;;
3121;SDS011;1571;52.524;14.104;2023-11-21T00:28:09;6.90;;;1.87;;
3121;SDS011;1571;52.524;14.104;2023-11-21T00:30:38;6.53;;;3.63;;
3121;SDS011;1571;52.524;14.104;2023-11-21T00:33:07;5.20;;;2.40;;
3121;SDS011;1571;52.524;14.104;2023-11-21T00:35:35;1.33;;;1.07;;
3121;SDS011;1571;52.524;14.104;2023-11-21T00:38:03;2.80;;;2.53;;
3121;SDS011;1571;52.524;14.104;2023-11-21T00:40:32;2.40;;;1.63;;
3121;SDS011;1571;52.524;14.104;2023-11-21T00:43:00;1.50;;;1.33;;
3121;SDS011;1571;52.524;14.104;2023-11-21T00:45:33;2.13;;;1.30;;
3121;SDS011;1571;52.524;14.104;2023-11-21T00:48:03;2.13;;;2.03;;
3121;SDS011;1571;52.524;14.104;2023-11-21T00:50:32;3.13;;;2.83;;
3121;SDS011;1571;52.524;14.104;2023-11-21T00:53:00;2.87;;;2.63;;
3121;SDS011;1571;52.524;14.104;2023-11-21T00:55:29;5.57;;;2.80;;
3121;SDS011;1571;52.524;14.104;2023-11-21T00:57:58;1.87;;;1.77;;
3121;SDS011;1571;52.524;14.104;2023-11-21T01:00:26;2.23;;;1.67;;
3121;SDS011;1571;52.524;14.104;2023-11-21T01:02:57;6.83;;;2.13;;
3121;SDS011;1571;52.524;14.104;2023-11-21T01:05:25;6.53;;;3.13;;
3121;SDS011;1571;52.524;14.104;2023-11-21T01:07:53;3.53;;;2.10;;
3121;SDS011;1571;52.524;14.104;2023-11-21T01:10:22;2.00;;;1.90;;
3121;SDS011;1571;52.524;14.104;2023-11-21T01:12:52;3.13;;;2.60;;
3121;SDS011;1571;52.524;14.104;2023-11-21T01:15:20;4.40;;;3.50;;
3121;SDS011;1571;52.524;14.104;2023-11-21T01:17:48;3.83;;;3.47;;
3121;SDS011;1571;52.524;14.104;2023-11-21T01:20:18;1.80;;;1.07;;
3121;SDS011;1571;52.524;14.104;2023-11-21T01:22:47;5.50;;;2.57;;
3121;SDS011;1571;52.524;14.104;2023-11-21T01:25:16;5.77;;;1.10;;
3121;SDS011;1571;52.524;14.104;2023-11-21T01:27:44;1.23;;;1.23;;
3121;SDS011;1571;52.524;14.104;2023-11-21T01:30:13;3.13;;;2.80;;
3121;SDS011;1571;52.524;14.104;2023-11-21T01:32:41;4.03;;;2.57;;
3121;SDS011;1571;52.524;14.104;2023-11-21T01:35:10;3.03;;;1.83;;
3121;SDS011;1571;52.524;14.104;2023-11-21T01:37:40;4.97;;;2.93;;
3121;SDS011;1571;52.524;14.104;2023-11-21T01:40:09;7.90;;;3.43;;
3121;SDS011;1571;52.524;14.104;2023-11-21T01:42:41;8.73;;;3.57;;
3121;SDS011;1571;52.524;14.104;2023-11-21T01:45:11;2.07;;;1.87;;
3121;SDS011;1571;52.524;14.104;2023-11-21T01:47:40;1.33;;;1.23;;
3121;SDS011;1571;52.524;14.104;2023-11-21T01:50:12;6.43;;;2.87;;
3121;SDS011;1571;52.524;14.104;2023-11-21T01:52:45;1.30;;;1.17;;
3121;SDS011;1571;52.524;14.104;2023-11-21T01:55:14;2.47;;;1.10;;
3121;SDS011;1571;52.524;14.104;2023-11-21T01:57:54;10.17;;;3.27;;
3121;SDS011;1571;52.524;14.104;2023-11-21T02:00:24;7.97;;;4.07;;
3121;SDS011;1571;52.524;14.104;2023-11-21T02:02:53;25.13;;;3.27;;
3121;SDS011;1571;52.524;14.104;2023-11-21T02:05:21;3.73;;;2.53;;
3121;SDS011;1571;52.524;14.104;2023-11-21T02:07:51;4.17;;;3.07;;
3121;SDS011;1571;52.524;14.104;2023-11-21T02:10:20;6.70;;;2.27;;
3121;SDS011;1571;52.524;14.104;2023-11-21T02:12:51;3.97;;;2.83;;
3121;SDS011;1571;52.524;14.104;2023-11-21T02:15:20;2.70;;;2.00;;
3121;SDS011;1571;52.524;14.104;2023-11-21T02:17:50;7.60;;;3.90;;
3121;SDS011;1571;52.524;14.104;2023-11-21T02:20:20;5.93;;;3.37;;
3121;SDS011;1571;52.524;14.104;2023-11-21T02:22:53;7.07;;;3.20;;
3121;SDS011;1571;52.524;14.104;2023-11-21T02:25:26;13.00;;;2.80;;
3121;SDS011;1571;52.524;14.104;2023-11-21T02:27:55;1.67;;;1.50;;
3121;SDS011;1571;52.524;14.104;2023-11-21T02:30:24;2.73;;;2.67;;
3121;SDS011;1571;52.524;14.104;2023-11-21T02:32:55;2.27;;;2.17;;
3121;SDS011;1571;52.524;14.104;2023-11-21T02:35:25;2.50;;;2.30;;
3121;SDS011;1571;52.524;14.104;2023-11-21T02:37:55;0.60;;;0.60;;
3121;SDS011;1571;52.524;14.104;2023-11-21T02:40:24;2.43;;;2.33;;
3121;SDS011;1571;52.524;14.104;2023-11-21T02:42:54;3.03;;;2.83;;
3121;SDS011;1571;52.524;14.104;2023-11-21T02:45:24;1.50;;;1.50;;
3121;SDS011;1571;52.524;14.104;2023-11-21T02:47:53;1.27;;;1.27;;
3121;SDS011;1571;52.524;14.104;2023-11-21T02:50:25;2.73;;;2.53;;
3121;SDS011;1571;52.524;14.104;2023-11-21T02:52:55;1.07;;;1.07;;
3121;SDS011;1571;52.524;14.104;2023-11-21T02:55:27;2.20;;;2.10;;
3121;SDS011;1571;52.524;14.104;2023-11-21T02:57:55;2.50;;;1.70;;
3121;SDS011;1571;52.524;14.104;2023-11-21T03:00:24;1.87;;;1.77;;
3121;SDS011;1571;52.524;14.104;2023-11-21T03:06:09;3.60;;;3.30;;
3121;SDS011;1571;52.524;14.104;2023-11-21T03:08:38;0.30;;;0.30;;
3121;SDS011;1571;52.524;14.104;2023-11-21T03:11:09;1.00;;;1.00;;
3121;SDS011;1571;52.524;14.104;2023-11-21T03:13:38;1.90;;;1.70;;
3121;SDS011;1571;52.524;14.104;2023-11-21T03:16:07;2.13;;;2.03;;
3121;SDS011;1571;52.524;14.104;2023-11-21T03:18:36;2.80;;;2.60;;
3121;SDS011;1571;52.524;14.104;2023-11-21T03:21:04;0.93;;;0.93;;
3121;SDS011;1571;52.524;14.104;2023-11-21T03:23:34;2.53;;;2.30;;
3121;SDS011;1571;52.524;14.104;2023-11-21T03:26:04;1.53;;;1.43;;
3121;SDS011;1571;52.524;14.104;2023-11-21T03:28:35;0.70;;;0.70;;
3121;SDS011;1571;52.524;14.104;2023-11-21T03:31:03;1.37;;;1.37;;
3121;SDS011;1571;52.524;14.104;2023-11-21T03:33:33;0.80;;;0.80;;
3121;SDS011;1571;52.524;14.104;2023-11-21T03:36:01;2.70;;;2.60;;
3121;SDS011;1571;52.524;14.104;2023-11-21T03:38:30;1.50;;;1.40;;
3121;SDS011;1571;52.524;14.104;2023-11-21T03:40:58;1.50;;;1.50;;
3121;SDS011;1571;52.524;14.104;2023-11-21T03:43:29;1.53;;;1.43;;
3121;SDS011;1571;52.524;14.104;2023-11-21T03:45:57;1.93;;;1.83;;
3121;SDS011;1571;52.524;14.104;2023-11-21T03:48:25;0.50;;;0.50;;
3121;SDS011;1571;52.524;14.104;2023-11-21T03:50:54;2.53;;;2.33;;
3121;SDS011;1571;52.524;14.104;2023-11-21T03:53:22;2.13;;;2.03;;
3121;SDS011;1571;52.524;14.104;2023-11-21T03:55:50;0.90;;;0.90;;
3121;SDS011;1571;52.524;14.104;2023-11-21T03:58:18;1.90;;;1.80;;
3121;SDS011;1571;52.524;14.104;2023-11-21T04:00:48;2.00;;;1.90;;
3121;SDS011;1571;52.524;14.104;2023-11-21T04:03:16;8.93;;;2.33;;
3121;SDS011;1571;52.524;14.104;2023-11-21T04:05:45;3.33;;;2.87;;
3121;SDS011;1571;52.524;14.104;2023-11-21T04:08:14;0.73;;;0.70;;
3121;SDS011;1571;52.524;14.104;2023-11-21T04:10:42;3.63;;;3.40;;
3121;SDS011;1571;52.524;14.104;2023-11-21T04:13:10;3.07;;;2.90;;
3121;SDS011;1571;52.524;14.104;2023-11-21T04:15:39;2.20;;;2.10;;
3121;SDS011;1571;52.524;14.104;2023-11-21T04:18:08;3.17;;;2.87;;
3121;SDS011;1571;52.524;14.104;2023-11-21T04:20:37;3.20;;;2.43;;
3121;SDS011;1571;52.524;14.104;2023-11-21T04:23:05;3.60;;;2.93;;
3121;SDS011;1571;52.524;14.104;2023-11-21T04:25:33;3.13;;;2.97;;
3121;SDS011;1571;52.524;14.104;2023-11-21T04:28:02;2.67;;;2.47;;
3121;SDS011;1571;52.524;14.104;2023-11-21T04:30:31;4.07;;;3.80;;
3121;SDS011;1571;52.524;14.104;2023-11-21T04:32:59;1.13;;;1.13;;
3121;SDS011;1571;52.524;14.104;2023-11-21T04:35:29;5.30;;;5.00;;
3121;SDS011;1571;52.524;14.104;2023-11-21T04:37:57;6.17;;;3.90;;
3121;SDS011;1571;52.524;14.104;2023-11-21T04:40:26;2.30;;;2.20;;
3121;SDS011;1571;52.524;14.104;2023-11-21T04:42:54;1.07;;;1.07;;
3121;SDS011;1571;52.524;14.104;2023-11-21T04:45:24;6.03;;;5.73;;
3121;SDS011;1571;52.524;14.104;2023-11-21T04:47:52;4.83;;;4.53;;
3121;SDS011;1571;52.524;14.104;2023-11-21T04:50:20;3.43;;;3.33;;
3121;SDS011;1571;52.524;14.104;2023-11-21T04:52:50;7.30;;;4.83;;
3121;SDS011;1571;52.524;14.104;2023-11-21T04:55:18;3.10;;;3.00;;
3121;SDS011;1571;52.524;14.104;2023-11-21T04:57:46;1.90;;;1.90;;
3121;SDS011;1571;52.524;14.104;2023-11-21T05:00:15;4.57;;;4.27;;
3121;SDS011;1571;52.524;14.104;2023-11-21T05:02:43;6.83;;;6.40;;
3121;SDS011;1571;52.524;14.104;2023-11-21T05:05:12;2.23;;;2.13;;
3121;SDS011;1571;52.524;14.104;2023-11-21T05:07:41;3.63;;;2.97;;
3121;SDS011;1571;52.524;14.104;2023-11-21T05:10:11;3.80;;;2.50;;
3121;SDS011;1571;52.524;14.104;2023-11-21T05:12:41;2.70;;;2.53;;
3121;SDS011;1571;52.524;14.104;2023-11-21T05:15:12;1.00;;;1.00;;
3121;SDS011;1571;52.524;14.104;2023-11-21T05:17:42;4.13;;;3.93;;
3121;SDS011;1571;52.524;14.104;2023-11-21T05:20:13;1.47;;;1.33;;
3121;SDS011;1571;52.524;14.104;2023-11-21T05:22:45;2.63;;;2.43;;
3121;SDS011;1571;52.524;14.104;2023-11-21T05:25:16;1.70;;;1.60;;
3121;SDS011;1571;52.524;14.104;2023-11-21T05:27:46;1.00;;;1.00;;
3121;SDS011;1571;52.524;14.104;2023-11-21T05:30:15;1.60;;;1.53;;
3121;SDS011;1571;52.524;14.104;2023-11-21T05:32:43;1.37;;;1.33;;
3121;SDS011;1571;52.524;14.104;2023-11-21T05:35:13;1.27;;;1.03;;
3121;SDS011;1571;52.524;14.104;2023-11-21T05:37:44;1.53;;;1.40;;
3121;SDS011;1571;52.524;14.104;2023-11-21T05:40:15;0.60;;;0.60;;
3121;SDS011;1571;52.524;14.104;2023-11-21T05:42:43;0.40;;;0.40;;
3121;SDS011;1571;52.524;14.104;2023-11-21T05:45:12;1.63;;;1.60;;
3121;SDS011;1571;52.524;14.104;2023-11-21T05:47:41;1.70;;;1.37;;
3121;SDS011;1571;52.524;14.104;2023-11-21T05:50:13;0.60;;;0.50;;
3121;SDS011;1571;52.524;14.104;2023-11-21T05:52:43;1.17;;;1.17;;
3121;SDS011;1571;52.524;14.104;2023-11-21T05:55:12;0.40;;;0.40;;
3121;SDS011;1571;52.524;14.104;2023-11-21T05:57:43;1.33;;;1.17;;
3121;SDS011;1571;52.524;14.104;2023-11-21T06:00:12;0.40;;;0.40;;
3121;SDS011;1571;52.524;14.104;2023-11-21T06:02:47;0.53;;;0.53;;
3121;SDS011;1571;52.524;14.104;2023-11-21T06:05:17;1.67;;;1.67;;
3121;SDS011;1571;52.524;14.104;2023-11-21T06:07:46;0.30;;;0.30;;
3121;SDS011;1571;52.524;14.104;2023-11-21T06:10:16;0.80;;;0.80;;
3121;SDS011;1571;52.524;14.104;2023-11-21T06:12:46;0.30;;;0.30;;
3121;SDS011;1571;52.524;14.104;2023-11-21T06:15:15;0.40;;;0.40;;
3121;SDS011;1571;52.524;14.104;2023-11-21T06:17:46;0.30;;;0.30;;
3121;SDS011;1571;52.524;14.104;2023-11-21T06:20:19;0.80;;;0.80;;
3121;SDS011;1571;52.524;14.104;2023-11-21T06:22:48;0.60;;;0.60;;
3121;SDS011;1571;52.524;14.104;2023-11-21T06:25:19;0.30;;;0.30;;
3121;SDS011;1571;52.524;14.104;2023-11-21T06:27:48;0.70;;;0.70;;
3121;SDS011;1571;52.524;14.104;2023-11-21T06:30:16;0.30;;;0.30;;
3121;SDS011;1571;52.524;14.104;2023-11-21T06:32:47;0.63;;;0.63;;
3121;SDS011;1571;52.524;14.104;2023-11-21T06:35:16;0.40;;;0.40;;
3121;SDS011;1571;52.524;14.104;2023-11-21T06:37:45;0.60;;;0.60;;
3121;SDS011;1571;52.524;14.104;2023-11-21T06:40:16;0.40;;;0.40;;
3121;SDS011;1571;52.524;14.104;2023-11-21T06:42:48;0.30;;;0.30;;
3121;SDS011;1571;52.524;14.104;2023-11-21T06:45:17;0.90;;;0.90;;
3121;SDS011;1571;52.524;14.104;2023-11-21T06:47:47;1.93;;;1.83;;
3121;SDS011;1571;52.524;14.104;2023-11-21T06:50:16;0.53;;;0.53;;
3121;SDS011;1571;52.524;14.104;2023-11-21T06:52:45;0.30;;;0.30;;
3121;SDS011;1571;52.524;14.104;2023-11-21T06:55:13;0.87;;;0.83;;
3121;SDS011;1571;52.524;14.104;2023-11-21T06:57:43;1.27;;;1.27;;
3121;SDS011;1571;52.524;14.104;2023-11-21T07:00:13;0.40;;;0.40;;
3121;SDS011;1571;52.524;14.104;2023-11-21T07:02:45;0.77;;;0.77;;
3121;SDS011;1571;52.524;14.104;2023-11-21T07:05:13;0.37;;;0.37;;
3121;SDS011;1571;52.524;14.104;2023-11-21T07:07:42;3.50;;;3.30;;
3121;SDS011;1571;52.524;14.104;2023-11-21T07:10:11;0.40;;;0.40;;
3121;SDS011;1571;52.524;14.104;2023-11-21T07:12:39;0.60;;;0.60;;
3121;SDS011;1571;52.524;14.104;2023-11-21T07:15:08;0.30;;;0.30;;
3121;SDS011;1571;52.524;14.104;2023-11-21T07:17:38;0.30;;;0.30;;
3121;SDS011;1571;52.524;14.104;2023-11-21T07:20:08;0.40;;;0.40;;
3121;SDS011;1571;52.524;14.104;2023-11-21T07:22:38;0.50;;;0.50;;
3121;SDS011;1571;52.524;14.104;2023-11-21T07:25:07;0.40;;;0.40;;
3121;SDS011;1571;52.524;14.104;2023-11-21T07:27:36;0.30;;;0.30;;
3121;SDS011;1571;52.524;14.104;2023-11-21T07:30:05;0.90;;;0.90;;
3121;SDS011;1571;52.524;14.104;2023-11-21T07:32:38;0.60;;;0.60;;
3121;SDS011;1571;52.524;14.104;2023-11-21T07:35:08;0.30;;;0.30;;
3121;SDS011;1571;52.524;14.104;2023-11-21T07:37:37;0.53;;;0.53;;
3121;SDS011;1571;52.524;14.104;2023-11-21T07:40:06;1.13;;;1.13;;
3121;SDS011;1571;52.524;14.104;2023-11-21T07:42:36;0.70;;;0.70;;
3121;SDS011;1571;52.524;14.104;2023-11-21T07:45:05;0.30;;;0.30;;
3121;SDS011;1571;52.524;14.104;2023-11-21T07:47:34;0.50;;;0.50;;
3121;SDS011;1571;52.524;14.104;2023-11-21T07:50:05;0.40;;;0.40;;
3121;SDS011;1571;52.524;14.104;2023-11-21T07:52:35;0.50;;;0.50;;
3121;SDS011;1571;52.524;14.104;2023-11-21T07:55:04;0.47;;;0.47;;
3121;SDS011;1571;52.524;14.104;2023-11-21T07:57:32;0.30;;;0.30;;
3121;SDS011;1571;52.524;14.104;2023-11-21T08:00:00;0.30;;;0.30;;
3121;SDS011;1571;52.524;14.104;2023-11-21T08:02:38;0.30;;;0.30;;
3121;SDS011;1571;52.524;14.104;2023-11-21T08:05:11;0.70;;;0.70;;
3121;SDS011;1571;52.524;14.104;2023-11-21T08:07:51;0.50;;;0.50;;
3121;SDS011;1571;52.524;14.104;2023-11-21T08:10:19;0.40;;;0.40;;
3121;SDS011;1571;52.524;14.104;2023-11-21T08:12:49;0.40;;;0.40;;
3121;SDS011;1571;52.524;14.104;2023-11-21T08:15:18;0.30;;;0.30;;
3121;SDS011;1571;52.524;14.104;2023-11-21T08:17:46;0.67;;;0.67;;
3121;SDS011;1571;52.524;14.104;2023-11-21T08:20:16;0.50;;;0.50;;
3121;SDS011;1571;52.524;14.104;2023-11-21T08:22:45;1.47;;;1.47;;
3121;SDS011;1571;52.524;14.104;2023-11-21T08:25:14;1.43;;;0.77;;
3121;SDS011;1571;52.524;14.104;2023-11-21T08:27:44;0.40;;;0.40;;
3121;SDS011;1571;52.524;14.104;2023-11-21T08:30:12;0.30;;;0.30;;
3121;SDS011;1571;52.524;14.104;2023-11-21T08:32:43;0.50;;;0.50;;
3121;SDS011;1571;52.524;14.104;2023-11-21T08:35:12;0.87;;;0.87;;
3121;SDS011;1571;52.524;14.104;2023-11-21T08:37:42;0.80;;;0.80;;
3121;SDS011;1571;52.524;14.104;2023-11-21T08:40:11;2.03;;;1.93;;
3121;SDS011;1571;52.524;14.104;2023-11-21T08:42:43;0.30;;;0.30;;
3121;SDS011;1571;52.524;14.104;2023-11-21T08:45:12;4.00;;;0.53;;
3121;SDS011;1571;52.524;14.104;2023-11-21T08:47:41;0.30;;;0.30;;
3121;SDS011;1571;52.524;14.104;2023-11-21T08:50:11;0.30;;;0.30;;
3121;SDS011;1571;52.524;14.104;2023-11-21T08:52:41;0.40;;;0.40;;
3121;SDS011;1571;52.524;14.104;2023-11-21T08:55:10;0.30;;;0.30;;
3121;SDS011;1571;52.524;14.104;2023-11-21T08:57:39;0.43;;;0.43;;
3121;SDS011;1571;52.524;14.104;2023-11-21T09:00:09;0.30;;;0.30;;
3121;SDS011;1571;52.524;14.104;2023-11-21T09:02:39;1.70;;;1.33;;
3121;SDS011;1571;52.524;14.104;2023-11-21T09:05:09;0.30;;;0.30;;
3121;SDS011;1571;52.524;14.104;2023-11-21T09:07:38;0.83;;;0.80;;
3121;SDS011;1571;52.524;14.104;2023-11-21T09:10:10;0.50;;;0.50;;
3121;SDS011;1571;52.524;14.104;2023-11-21T09:12:38;0.30;;;0.30;;
3121;SDS011;1571;52.524;14.104;2023-11-21T09:15:07;0.27;;;0.27;;
3121;SDS011;1571;52.524;14.104;2023-11-21T09:17:38;0.30;;;0.30;;
3121;SDS011;1571;52.524;14.104;2023-11-21T09:20:07;0.67;;;0.67;;
3121;SDS011;1571;52.524;14.104;2023-11-21T09:22:37;0.53;;;0.53;;
3121;SDS011;1571;52.524;14.104;2023-11-21T09:25:05;0.30;;;0.30;;
3121;SDS011;1571;52.524;14.104;2023-11-21T09:27:36;0.30;;;0.30;;
3121;SDS011;1571;52.524;14.104;2023-11-21T09:30:05;1.17;;;1.17;;
3121;SDS011;1571;52.524;14.104;2023-11-21T09:32:39;0.97;;;0.93;;
3121;SDS011;1571;52.524;14.104;2023-11-21T09:35:08;1.40;;;1.27;;
3121;SDS011;1571;52.524;14.104;2023-11-21T09:37:37;0.47;;;0.47;;
3121;SDS011;1571;52.524;14.104;2023-11-21T09:40:06;0.50;;;0.50;;
3121;SDS011;1571;52.524;14.104;2023-11-21T09:42:43;0.30;;;0.30;;
3121;SDS011;1571;52.524;14.104;2023-11-21T09:45:18;0.50;;;0.50;;
3121;SDS011;1571;52.524;14.104;2023-11-21T09:47:52;0.37;;;0.37;;
3121;SDS011;1571;52.524;14.104;2023-11-21T09:50:22;0.30;;;0.30;;
3121;SDS011;1571;52.524;14.104;2023-11-21T09:52:57;0.30;;;0.30;;
3121;SDS011;1571;52.524;14.104;2023-11-21T09:55:43;0.30;;;0.30;;
3121;SDS011;1571;52.524;14.104;2023-11-21T09:58:14;0.40;;;0.40;;
3121;SDS011;1571;52.524;14.104;2023-11-21T10:00:43;1.00;;;0.47;;
3121;SDS011;1571;52.524;14.104;2023-11-21T10:03:13;0.30;;;0.30;;
3121;SDS011;1571;52.524;14.104;2023-11-21T10:05:42;0.70;;;0.70;;
3121;SDS011;1571;52.524;14.104;2023-11-21T10:08:13;0.20;;;0.20;;
3121;SDS011;1571;52.524;14.104;2023-11-21T10:10:42;0.40;;;0.40;;
3121;SDS011;1571;52.524;14.104;2023-11-21T10:13:12;0.57;;;0.57;;
3121;SDS011;1571;52.524;14.104;2023-11-21T10:15:45;0.50;;;0.50;;
3121;SDS011;1571;52.524;14.104;2023-11-21T10:18:17;0.30;;;0.30;;
3121;SDS011;1571;52.524;14.104;2023-11-21T10:20:46;0.60;;;0.60;;
3121;SDS011;1571;52.524;14.104;2023-11-21T10:23:20;0.30;;;0.30;;
3121;SDS011;1571;52.524;14.104;2023-11-21T10:25:49;0.30;;;0.30;;
3121;SDS011;1571;52.524;14.104;2023-11-21T10:28:20;0.40;;;0.40;;
3121;SDS011;1571;52.524;14.104;2023-11-21T10:30:49;0.30;;;0.30;;
3121;SDS011;1571;52.524;14.104;2023-11-21T10:33:17;0.40;;;0.40;;
3121;SDS011;1571;52.524;14.104;2023-11-21T10:35:54;0.60;;;0.60;;
3121;SDS011;1571;52.524;14.104;2023-11-21T10:38:23;0.30;;;0.30;;
3121;SDS011;1571;52.524;14.104;2023-11-21T10:40:52;0.63;;;0.63;;
3121;SDS011;1571;52.524;14.104;2023-11-21T10:43:25;0.30;;;0.30;;
3121;SDS011;1571;52.524;14.104;2023-11-21T10:45:57;0.30;;;0.30;;
3121;SDS011;1571;52.524;14.104;2023-11-21T10:48:26;0.40;;;0.40;;
3121;SDS011;1571;52.524;14.104;2023-11-21T10:50:55;0.40;;;0.40;;
3121;SDS011;1571;52.524;14.104;2023-11-21T10:53:23;0.30;;;0.30;;
3121;SDS011;1571;52.524;14.104;2023-11-21T10:55:58;0.30;;;0.30;;
3121;SDS011;1571;52.524;14.104;2023-11-21T10:58:31;0.30;;;0.30;;
3121;SDS011;1571;52.524;14.104;2023-11-21T11:01:00;1.20;;;1.20;;
3121;SDS011;1571;52.524;14.104;2023-11-21T11:03:32;0.30;;;0.30;;
3121;SDS011;1571;52.524;14.104;2023-11-21T11:06:04;0.53;;;0.53;;
3121;SDS011;1571;52.524;14.104;2023-11-21T11:08:38;0.90;;;0.87;;
3121;SDS011;1571;52.524;14.104;2023-11-21T11:11:07;0.40;;;0.40;;
3121;SDS011;1571;52.524;14.104;2023-11-21T11:13:39;0.30;;;0.30;;
3121;SDS011;1571;52.524;14.104;2023-11-21T11:16:11;0.30;;;0.30;;
3121;SDS011;1571;52.524;14.104;2023-11-21T11:18:44;0.30;;;0.30;;
3121;SDS011;1571;52.524;14.104;2023-11-21T11:21:18;0.70;;;0.40;;
3121;SDS011;1571;52.524;14.104;2023-11-21T11:23:59;0.30;;;0.30;;
3121;SDS011;1571;52.524;14.104;2023-11-21T11:26:41;0.20;;;0.20;;
3121;SDS011;1571;52.524;14.104;2023-11-21T11:29:17;0.30;;;0.30;;
3121;SDS011;1571;52.524;14.104;2023-11-21T11:31:59;0.20;;;0.20;;
3121;SDS011;1571;52.524;14.104;2023-11-21T11:34:36;0.30;;;0.30;;
3121;SDS011;1571;52.524;14.104;2023-11-21T11:37:12;0.30;;;0.30;;
3121;SDS011;1571;52.524;14.104;2023-11-21T11:39:41;0.60;;;0.60;;
3121;SDS011;1571;52.524;14.104;2023-11-21T11:42:12;0.30;;;0.30;;
3121;SDS011;1571;52.524;14.104;2023-11-21T11:44:47;0.60;;;0.60;;
3121;SDS011;1571;52.524;14.104;2023-11-21T11:47:20;0.30;;;0.30;;
3121;SDS011;1571;52.524;14.104;2023-11-21T11:49:56;0.30;;;0.30;;
3121;SDS011;1571;52.524;14.104;2023-11-21T11:52:32;0.40;;;0.40;;
3121;SDS011;1571;52.524;14.104;2023-11-21T11:55:01;0.30;;;0.30;;
3121;SDS011;1571;52.524;14.104;2023-11-21T11:57:30;0.27;;;0.27;;
3121;SDS011;1571;52.524;14.104;2023-11-21T12:00:11;0.70;;;0.70;;
3121;SDS011;1571;52.524;14.104;2023-11-21T12:02:44;0.20;;;0.20;;
3121;SDS011;1571;52.524;14.104;2023-11-21T12:05:14;0.30;;;0.30;;
3121;SDS011;1571;52.524;14.104;2023-11-21T12:07:46;0.87;;;0.87;;
3121;SDS011;1571;52.524;14.104;2023-11-21T12:10:16;0.30;;;0.30;;
3121;SDS011;1571;52.524;14.104;2023-11-21T12:12:46;0.20;;;0.20;;
3121;SDS011;1571;52.524;14.104;2023-11-21T12:15:17;0.20;;;0.20;;
3121;SDS011;1571;52.524;14.104;2023-11-21T12:17:45;0.30;;;0.30;;
3121;SDS011;1571;52.524;14.104;2023-11-21T12:20:16;0.47;;;0.47;;
3121;SDS011;1571;52.524;14.104;2023-11-21T12:22:47;0.93;;;0.93;;
3121;SDS011;1571;52.524;14.104;2023-11-21T12:25:17;0.50;;;0.50;;
3121;SDS011;1571;52.524;14.104;2023-11-21T12:27:47;0.20;;;0.20;;
3121;SDS011;1571;52.524;14.104;2023-11-21T12:30:19;0.30;;;0.30;;
3121;SDS011;1571;52.524;14.104;2023-11-21T12:32:49;0.40;;;0.40;;
3121;SDS011;1571;52.524;14.104;2023-11-21T12:35:19;0.30;;;0.30;;
3121;SDS011;1571;52.524;14.104;2023-11-21T12:37:50;0.30;;;0.30;;
3121;SDS011;1571;52.524;14.104;2023-11-21T12:40:19;0.30;;;0.30;;
3121;SDS011;1571;52.524;14.104;2023-11-21T12:42:51;0.30;;;0.30;;
3121;SDS011;1571;52.524;14.104;2023-11-21T12:45:22;0.30;;;0.30;;
3121;SDS011;1571;52.524;14.104;2023-11-21T12:47:54;0.37;;;0.37;;
3121;SDS011;1571;52.524;14.104;2023-11-21T12:50:27;0.70;;;0.70;;
3121;SDS011;1571;52.524;14.104;2023-11-21T12:52:59;0.20;;;0.20;;
3121;SDS011;1571;52.524;14.104;2023-11-21T12:55:29;0.53;;;0.53;;
3121;SDS011;1571;52.524;14.104;2023-11-21T12:58:00;0.30;;;0.30;;
3121;SDS011;1571;52.524;14.104;2023-11-21T13:00:38;0.30;;;0.30;;
3121;SDS011;1571;52.524;14.104;2023-11-21T13:03:10;0.33;;;0.33;;
3121;SDS011;1571;52.524;14.104;2023-11-21T13:05:43;0.30;;;0.30;;
3121;SDS011;1571;52.524;14.104;2023-11-21T13:08:15;0.60;;;0.60;;
3121;SDS011;1571;52.524;14.104;2023-11-21T13:10:48;0.50;;;0.50;;
3121;SDS011;1571;52.524;14.104;2023-11-21T13:13:18;0.97;;;0.97;;
3121;SDS011;1571;52.524;14.104;2023-11-21T13:15:52;0.50;;;0.50;;
3121;SDS011;1571;52.524;14.104;2023-11-21T13:18:23;0.53;;;0.47;;
3121;SDS011;1571;52.524;14.104;2023-11-21T13:20:52;0.40;;;0.40;;
3121;SDS011;1571;52.524;14.104;2023-11-21T13:23:21;0.40;;;0.40;;
3121;SDS011;1571;52.524;14.104;2023-11-21T13:25:51;0.80;;;0.80;;
3121;SDS011;1571;52.524;14.104;2023-11-21T13:28:30;0.30;;;0.30;;
3121;SDS011;1571;52.524;14.104;2023-11-21T13:31:02;0.60;;;0.60;;
3121;SDS011;1571;52.524;14.104;2023-11-21T13:33:38;0.60;;;0.60;;
3121;SDS011;1571;52.524;14.104;2023-11-21T13:36:07;0.60;;;0.60;;
3121;SDS011;1571;52.524;14.104;2023-11-21T13:38:38;0.70;;;0.70;;
3121;SDS011;1571;52.524;14.104;2023-11-21T13:41:10;1.43;;;1.33;;
3121;SDS011;1571;52.524;14.104;2023-11-21T13:43:41;0.37;;;0.37;;
3121;SDS011;1571;52.524;14.104;2023-11-21T13:46:13;1.20;;;1.13;;
3121;SDS011;1571;52.524;14.104;2023-11-21T13:48:44;3.80;;;1.80;;
3121;SDS011;1571;52.524;14.104;2023-11-21T13:51:18;2.53;;;1.17;;
3121;SDS011;1571;52.524;14.104;2023-11-21T13:53:47;1.53;;;0.60;;
3121;SDS011;1571;52.524;14.104;2023-11-21T13:56:19;0.50;;;0.40;;
3121;SDS011;1571;52.524;14.104;2023-11-21T13:58:51;0.97;;;0.70;;
3121;SDS011;1571;52.524;14.104;2023-11-21T14:01:22;0.70;;;0.70;;
3121;SDS011;1571;52.524;14.104;2023-11-21T14:04:12;0.60;;;0.60;;
3121;SDS011;1571;52.524;14.104;2023-11-21T14:06:47;1.83;;;1.67;;
3121;SDS011;1571;52.524;14.104;2023-11-21T14:09:18;1.00;;;1.00;;
3121;SDS011;1571;52.524;14.104;2023-11-21T14:11:53;1.40;;;1.33;;
3121;SDS011;1571;52.524;14.104;2023-11-21T14:14:25;0.50;;;0.40;;
3121;SDS011;1571;52.524;14.104;2023-11-21T14:16:55;2.23;;;2.00;;
3121;SDS011;1571;52.524;14.104;2023-11-21T14:19:26;1.53;;;0.80;;
3121;SDS011;1571;52.524;14.104;2023-11-21T14:21:59;2.50;;;2.30;;
3121;SDS011;1571;52.524;14.104;2023-11-21T14:24:28;2.63;;;2.53;;
3121;SDS011;1571;52.524;14.104;2023-11-21T14:26:59;2.87;;;2.77;;
3121;SDS011;1571;52.524;14.104;2023-11-21T14:29:27;2.03;;;1.93;;
3121;SDS011;1571;52.524;14.104;2023-11-21T14:31:58;3.60;;;3.40;;
3121;SDS011;1571;52.524;14.104;2023-11-21T14:34:26;0.60;;;0.60;;
3121;SDS011;1571;52.524;14.104;2023-11-21T14:36:54;3.33;;;2.90;;
3121;SDS011;1571;52.524;14.104;2023-11-21T14:39:23;1.23;;;1.23;;
3121;SDS011;1571;52.524;14.104;2023-11-21T14:41:56;0.43;;;0.40;;
3121;SDS011;1571;52.524;14.104;2023-11-21T14:44:26;0.60;;;0.60;;
3121;SDS011;1571;52.524;14.104;2023-11-21T14:47:01;2.73;;;2.53;;
3121;SDS011;1571;52.524;14.104;2023-11-21T14:49:34;0.77;;;0.77;;
3121;SDS011;1571;52.524;14.104;2023-11-21T14:52:17;3.13;;;1.53;;
3121;SDS011;1571;52.524;14.104;2023-11-21T14:54:58;0.73;;;0.73;;
3121;SDS011;1571;52.524;14.104;2023-11-21T14:57:47;3.27;;;0.50;;
3121;SDS011;1571;52.524;14.104;2023-11-21T15:00:18;1.00;;;1.00;;
3121;SDS011;1571;52.524;14.104;2023-11-21T15:03:21;1.43;;;1.20;;
3121;SDS011;1571;52.524;14.104;2023-11-21T15:06:10;0.80;;;0.80;;
3121;SDS011;1571;52.524;14.104;2023-11-21T15:08:53;0.50;;;0.50;;
3121;SDS011;1571;52.524;14.104;2023-11-21T15:11:45;0.80;;;0.80;;
3121;SDS011;1571;52.524;14.104;2023-11-21T15:14:14;0.60;;;0.60;;
3121;SDS011;1571;52.524;14.104;2023-11-21T15:16:48;1.50;;;1.50;;
3121;SDS011;1571;52.524;14.104;2023-11-21T15:19:21;0.40;;;0.40;;
3121;SDS011;1571;52.524;14.104;2023-11-21T15:21:53;1.07;;;1.07;;
3121;SDS011;1571;52.524;14.104;2023-11-21T15:24:21;1.40;;;1.40;;